Time;durP1;ratioP1;P1;durP2;ratioP2;P2;SDS_P1;SDS_P2;PMS_P1;PMS_P2;Temp;Humidity;BMP_temperature;BMP_pressure;BME280_temperature;BME280_humidity;BME280_pressure;Samples;Min_cycle;Max_cycle;Signal;HPM_P1;HPM_P2
2021/07/14 00:00:45;;;;;;;;;;;21.40;84.90;;;;;;5015875;28;19921;-61
2021/07/14 00:03:11;;;;;;;;;;;21.50;85.10;;;;;;5015348;28;19917;-61
2021/07/14 00:05:38;;;;;;;;;;;21.50;85.00;;;;;;5033350;28;19917;-61
2021/07/14 00:08:05;;;;;;;;;;;21.40;85.00;;;;;;5032647;28;19918;-61
2021/07/14 00:10:32;;;;;;;;;;;21.40;85.20;;;;;;5015590;28;19917;-61
2021/07/14 00:23:53;;;;;;;;;;;21.40;85.50;;;;;;5014853;28;19967;-60
2021/07/14 00:26:19;;;;;;;;;;;21.30;85.60;;;;;;5015353;28;19917;-61
2021/07/14 00:28:49;;;;;;;;;;;21.30;85.70;;;;;;5031562;28;19928;-61
2021/07/14 00:31:15;;;;;;;;;;;21.40;85.70;;;;;;5032221;28;19921;-61
2021/07/14 00:33:41;;;;;;;;;;;21.30;85.80;;;;;;5032841;28;19917;-60
2021/07/14 00:36:07;;;;;;;;;;;21.30;86.00;;;;;;5032338;28;19973;-61
2021/07/14 00:38:33;;;;;;;;;;;21.30;86.00;;;;;;5014692;28;19982;-60
2021/07/14 00:40:58;;;;;;;;;;;21.30;86.10;;;;;;5032720;28;20004;-60
2021/07/14 00:43:24;;;;;;;;;;;21.30;86.20;;;;;;5032393;28;19918;-61
2021/07/14 00:45:49;;;;;;;;;;;21.30;86.10;;;;;;5032671;28;19921;-60
2021/07/14 00:48:20;;;;;;;;;;;21.30;86.10;;;;;;5014788;28;19921;-60
2021/07/14 00:50:46;;;;;;;;;;;21.30;86.10;;;;;;5032038;28;19921;-61
2021/07/14 00:53:11;;;;;;;;;;;21.30;86.10;;;;;;5014756;28;19917;-60
2021/07/14 00:55:37;;;;;;;;;;;21.20;86.20;;;;;;5031796;28;19964;-61
2021/07/14 00:58:03;;;;;;;;;;;21.20;86.30;;;;;;5032250;28;19928;-61
2021/07/14 01:00:28;;;;;;;;;;;21.10;86.40;;;;;;5031324;28;20008;-61
2021/07/14 01:02:54;;;;;;;;;;;21.10;86.60;;;;;;5031815;28;19923;-61
2021/07/14 01:05:24;;;;;;;;;;;21.10;86.80;;;;;;5032394;28;19917;-60
2021/07/14 01:07:53;;;;;;;;;;;21.10;86.90;;;;;;5031402;28;19921;-61
2021/07/14 01:10:45;;;;;;;;;;;21.10;86.90;;;;;;5014534;28;19917;-61
2021/07/14 01:13:15;;;;;;;;;;;21.10;87.10;;;;;;5027778;28;19921;-61
2021/07/14 01:15:47;;;;;;;;;;;21.10;87.10;;;;;;5032165;28;19963;-61
2021/07/14 01:18:17;;;;;;;;;;;21.10;87.70;;;;;;5031360;28;20392;-61
2021/07/14 01:20:46;;;;;;;;;;;21.10;87.20;;;;;;5031512;28;20392;-61
2021/07/14 01:23:16;;;;;;;;;;;21.10;87.30;;;;;;5013856;28;19979;-62
2021/07/14 01:26:01;;;;;;;;;;;21.10;87.30;;;;;;5031871;28;19917;-61
2021/07/14 01:28:27;;;;;;;;;;;21.10;87.40;;;;;;4997208;28;19924;-60
2021/07/14 01:30:53;;;;;;;;;;;21.10;87.50;;;;;;5031867;28;19917;-61
2021/07/14 01:33:21;;;;;;;;;;;21.10;87.50;;;;;;5014120;28;19978;-61
2021/07/14 01:35:48;;;;;;;;;;;21.10;87.60;;;;;;5030954;28;20388;-61
2021/07/14 01:38:14;;;;;;;;;;;21.10;87.50;;;;;;5031627;28;19917;-61
2021/07/14 01:40:40;;;;;;;;;;;21.00;87.50;;;;;;5031237;28;19917;-61
2021/07/14 01:43:06;;;;;;;;;;;21.00;87.60;;;;;;5031708;28;20396;-61
2021/07/14 01:45:33;;;;;;;;;;;21.00;87.50;;;;;;5031522;28;19917;-61
2021/07/14 01:48:00;;;;;;;;;;;21.00;87.50;;;;;;5030804;28;19917;-61
2021/07/14 01:50:27;;;;;;;;;;;21.00;87.60;;;;;;5014094;28;19940;-61
2021/07/14 01:52:53;;;;;;;;;;;21.00;87.80;;;;;;5013950;28;19928;-61
2021/07/14 01:55:18;;;;;;;;;;;21.00;87.80;;;;;;4981069;28;19917;-61
2021/07/14 01:57:44;;;;;;;;;;;21.00;87.80;;;;;;4997218;28;19917;-61
2021/07/14 02:00:10;;;;;;;;;;;21.00;87.90;;;;;;5031135;28;20501;-61
2021/07/14 02:02:53;;;;;;;;;;;20.90;87.90;;;;;;5031313;28;19917;-61
2021/07/14 02:05:19;;;;;;;;;;;20.90;87.90;;;;;;5013377;28;19917;-61
2021/07/14 02:07:45;;;;;;;;;;;21.00;88.10;;;;;;4996942;28;19928;-61
2021/07/14 02:10:12;;;;;;;;;;;20.90;87.90;;;;;;5031476;28;20007;-61
2021/07/14 02:12:38;;;;;;;;;;;20.90;88.00;;;;;;5030771;28;19928;-61
2021/07/14 02:15:04;;;;;;;;;;;20.90;88.10;;;;;;5031214;28;19918;-61
2021/07/14 02:17:34;;;;;;;;;;;20.90;88.10;;;;;;5030427;28;19917;-62
2021/07/14 02:20:02;;;;;;;;;;;20.90;88.00;;;;;;5031360;28;19917;-61
2021/07/14 02:22:28;;;;;;;;;;;20.90;88.00;;;;;;5031302;28;19968;-61
2021/07/14 02:24:54;;;;;;;;;;;20.90;88.10;;;;;;5030831;28;19921;-61
2021/07/14 02:27:20;;;;;;;;;;;20.90;88.00;;;;;;5030415;28;19953;-61
2021/07/14 02:29:47;;;;;;;;;;;20.90;88.10;;;;;;5013047;28;19961;-62
2021/07/14 02:32:14;;;;;;;;;;;20.90;88.10;;;;;;5013388;28;19928;-61
2021/07/14 02:34:41;;;;;;;;;;;20.90;88.10;;;;;;5017230;28;20320;-61
2021/07/14 02:37:10;;;;;;;;;;;20.90;88.20;;;;;;5034453;28;19917;-61
2021/07/14 02:39:36;;;;;;;;;;;20.80;88.20;;;;;;5035086;28;19957;-61
2021/07/14 02:42:09;;;;;;;;;;;20.80;88.30;;;;;;5017488;28;19917;-61
2021/07/14 02:44:39;;;;;;;;;;;20.80;88.30;;;;;;5016913;28;19917;-61
2021/07/14 02:47:06;;;;;;;;;;;20.80;88.30;;;;;;5034690;28;19917;-61
2021/07/14 02:49:32;;;;;;;;;;;20.90;88.20;;;;;;5032783;28;20335;-61
2021/07/14 02:51:59;;;;;;;;;;;20.80;88.10;;;;;;5017154;28;19929;-61
2021/07/14 02:54:27;;;;;;;;;;;20.80;88.10;;;;;;5034464;28;19918;-63
2021/07/14 02:57:01;;;;;;;;;;;20.80;88.00;;;;;;5034458;28;19940;-60
2021/07/14 02:59:31;;;;;;;;;;;20.80;88.10;;;;;;5034186;28;20304;-61
2021/07/14 03:01:59;;;;;;;;;;;20.70;88.20;;;;;;5034559;28;19989;-62
2021/07/14 03:04:29;;;;;;;;;;;20.70;88.30;;;;;;5016958;28;19940;-61
2021/07/14 03:06:56;;;;;;;;;;;20.80;88.30;;;;;;5033600;28;20393;-61
2021/07/14 03:09:31;;;;;;;;;;;20.70;88.30;;;;;;5016803;28;19924;-60
2021/07/14 03:11:58;;;;;;;;;;;20.70;88.20;;;;;;5032526;28;19964;-61
2021/07/14 03:14:24;;;;;;;;;;;20.70;88.20;;;;;;5016685;28;20382;-60
2021/07/14 03:16:49;;;;;;;;;;;20.70;88.30;;;;;;5034010;28;19996;-60
2021/07/14 03:19:15;;;;;;;;;;;20.70;88.30;;;;;;5033792;28;19957;-61
2021/07/14 03:21:42;;;;;;;;;;;20.60;88.40;;;;;;5034250;28;20115;-60
2021/07/14 03:24:08;;;;;;;;;;;20.60;88.50;;;;;;5016250;28;19932;-61
2021/07/14 03:26:35;;;;;;;;;;;20.60;88.60;;;;;;5034038;28;20004;-63
2021/07/14 03:29:01;;;;;;;;;;;20.60;88.70;;;;;;5016578;28;19917;-63
2021/07/14 03:31:29;;;;;;;;;;;20.60;88.80;;;;;;5033573;28;20013;-63
2021/07/14 03:33:55;;;;;;;;;;;20.60;88.80;;;;;;5034142;28;20300;-64
2021/07/14 03:36:21;;;;;;;;;;;20.60;88.90;;;;;;5033467;28;20015;-63
2021/07/14 03:38:46;;;;;;;;;;;20.60;88.90;;;;;;5033684;28;19924;-63
2021/07/14 03:41:12;;;;;;;;;;;20.60;88.90;;;;;;5033895;28;19918;-63
2021/07/14 03:43:38;;;;;;;;;;;20.60;89.00;;;;;;5031830;28;20277;-63
2021/07/14 03:46:06;;;;;;;;;;;20.60;89.10;;;;;;5033739;28;19917;-65
2021/07/14 03:48:32;;;;;;;;;;;20.60;89.10;;;;;;5033436;28;19917;-64
2021/07/14 03:51:00;;;;;;;;;;;20.60;89.20;;;;;;5015514;28;20336;-63
2021/07/14 03:53:26;;;;;;;;;;;20.60;89.10;;;;;;5033667;28;19917;-63
2021/07/14 03:55:52;;;;;;;;;;;20.70;89.10;;;;;;5033152;28;20340;-63
2021/07/14 03:58:18;;;;;;;;;;;20.70;89.20;;;;;;5033344;28;19917;-63
2021/07/14 04:00:44;;;;;;;;;;;20.70;89.20;;;;;;5032312;28;19967;-63
2021/07/14 04:03:10;;;;;;;;;;;20.60;89.20;;;;;;5032937;28;20377;-63
2021/07/14 04:05:44;;;;;;;;;;;20.60;89.30;;;;;;5033303;28;19952;-63
2021/07/14 04:08:12;;;;;;;;;;;20.70;89.40;;;;;;5032788;28;20004;-61
2021/07/14 04:10:38;;;;;;;;;;;20.70;89.20;;;;;;5033514;28;19917;-61
2021/07/14 04:13:04;;;;;;;;;;;20.60;89.20;;;;;;5015582;28;19917;-61
2021/07/14 04:15:29;;;;;;;;;;;20.70;89.40;;;;;;5032788;28;19917;-61
2021/07/14 04:17:55;;;;;;;;;;;20.70;89.50;;;;;;5015047;28;19967;-60
2021/07/14 04:20:21;;;;;;;;;;;20.70;89.40;;;;;;5014890;28;20008;-63
2021/07/14 04:22:46;;;;;;;;;;;20.70;89.40;;;;;;5032592;28;19917;-63
2021/07/14 04:25:12;;;;;;;;;;;20.80;89.40;;;;;;5033099;28;19918;-64
2021/07/14 04:27:38;;;;;;;;;;;20.80;89.30;;;;;;5031878;28;19920;-63
2021/07/14 04:30:03;;;;;;;;;;;20.80;89.40;;;;;;5032967;28;19967;-63
2021/07/14 04:32:29;;;;;;;;;;;20.80;89.40;;;;;;5015204;28;20433;-63
2021/07/14 04:34:54;;;;;;;;;;;20.80;89.30;;;;;;5014768;28;19928;-63
2021/07/14 04:37:20;;;;;;;;;;;20.90;89.40;;;;;;5032388;28;20000;-61
2021/07/14 04:39:45;;;;;;;;;;;20.80;89.40;;;;;;5032492;28;19921;-61
2021/07/14 04:42:11;;;;;;;;;;;20.90;89.60;;;;;;5015056;28;19917;-61
2021/07/14 04:44:48;;;;;;;;;;;20.90;89.40;;;;;;5014985;28;19917;-62
2021/07/14 04:47:13;;;;;;;;;;;21.00;89.40;;;;;;5013827;28;19921;-61
2021/07/14 04:49:39;;;;;;;;;;;21.00;89.40;;;;;;5032254;28;19917;-61
2021/07/14 04:52:04;;;;;;;;;;;21.00;89.40;;;;;;5031931;28;19975;-62
2021/07/14 04:54:30;;;;;;;;;;;21.10;89.40;;;;;;5032562;28;19921;-61
2021/07/14 04:56:56;;;;;;;;;;;21.10;89.30;;;;;;5030638;28;19956;-61
2021/07/14 04:59:21;;;;;;;;;;;21.20;89.20;;;;;;5029694;28;19956;-61
2021/07/14 05:01:47;;;;;;;;;;;21.20;89.10;;;;;;5030462;28;19924;-61
2021/07/14 05:04:12;;;;;;;;;;;21.20;89.10;;;;;;5032307;28;20381;-61
2021/07/14 05:06:39;;;;;;;;;;;21.20;89.10;;;;;;5054114;23;19921;-64
2021/07/14 05:09:04;;;;;;;;;;;21.20;89.10;;;;;;5046315;28;19996;-62
2021/07/14 05:11:30;;;;;;;;;;;21.30;89.10;;;;;;5052259;28;19994;-65
2021/07/14 05:13:55;;;;;;;;;;;21.30;89.10;;;;;;5051634;28;19917;-65
2021/07/14 05:16:21;;;;;;;;;;;21.40;89.20;;;;;;5051853;28;20356;-64
2021/07/14 05:18:46;;;;;;;;;;;21.40;89.20;;;;;;5028427;28;19917;-65
2021/07/14 05:21:12;;;;;;;;;;;21.50;89.20;;;;;;5040613;28;19917;-65
2021/07/14 05:23:37;;;;;;;;;;;21.50;89.10;;;;;;5051298;28;19921;-64
2021/07/14 05:26:03;;;;;;;;;;;21.50;89.20;;;;;;5050992;28;19917;-65
2021/07/14 05:28:29;;;;;;;;;;;21.60;88.90;;;;;;5049734;28;19940;-64
2021/07/14 05:30:54;;;;;;;;;;;21.50;88.90;;;;;;5051733;28;20269;-64
2021/07/14 05:33:20;;;;;;;;;;;21.60;89.00;;;;;;5051473;28;20407;-63
2021/07/14 05:35:46;;;;;;;;;;;21.60;88.80;;;;;;5051935;28;19986;-63
2021/07/14 05:38:19;;;;;;;;;;;21.60;88.80;;;;;;5033641;28;20004;-64
2021/07/14 05:40:45;;;;;;;;;;;21.60;88.50;;;;;;5033659;28;20312;-65
2021/07/14 05:43:10;;;;;;;;;;;21.60;88.60;;;;;;5051567;28;19917;-65
2021/07/14 05:45:36;;;;;;;;;;;21.60;88.80;;;;;;5033522;28;20365;-63
2021/07/14 05:48:02;;;;;;;;;;;21.60;88.80;;;;;;5051392;28;20427;-64
2021/07/14 05:50:28;;;;;;;;;;;21.70;88.60;;;;;;5051663;28;19921;-63
2021/07/14 05:52:54;;;;;;;;;;;21.70;88.40;;;;;;5033188;28;19928;-65
2021/07/14 05:55:20;;;;;;;;;;;21.60;88.50;;;;;;5051522;28;19917;-64
2021/07/14 05:57:45;;;;;;;;;;;21.60;88.70;;;;;;5051222;28;20491;-64
2021/07/14 06:00:11;;;;;;;;;;;21.70;89.00;;;;;;5051123;28;20400;-64
2021/07/14 06:02:37;;;;;;;;;;;21.70;88.50;;;;;;5033625;28;19917;-65
2021/07/14 06:05:04;;;;;;;;;;;21.70;88.50;;;;;;5050963;28;19939;-65
2021/07/14 06:07:30;;;;;;;;;;;21.70;88.70;;;;;;5050669;28;20396;-64
2021/07/14 06:09:56;;;;;;;;;;;21.70;88.90;;;;;;5051350;28;19963;-63
2021/07/14 06:12:21;;;;;;;;;;;21.70;88.70;;;;;;5050597;28;20889;-65
2021/07/14 06:14:49;;;;;;;;;;;21.70;88.80;;;;;;5051216;28;19924;-65
2021/07/14 06:17:15;;;;;;;;;;;21.70;88.60;;;;;;5050964;28;20385;-65
2021/07/14 06:19:41;;;;;;;;;;;21.70;88.70;;;;;;5046948;28;19920;-65
2021/07/14 06:22:06;;;;;;;;;;;21.70;88.90;;;;;;5033311;28;19967;-64
2021/07/14 06:24:32;;;;;;;;;;;21.80;88.90;;;;;;5043007;28;19917;-65
2021/07/14 06:26:57;;;;;;;;;;;21.70;88.70;;;;;;5042379;28;20008;-64
2021/07/14 06:29:23;;;;;;;;;;;21.70;88.70;;;;;;5029371;28;19944;-66
2021/07/14 06:31:49;;;;;;;;;;;21.60;88.70;;;;;;5043073;28;19932;-64
2021/07/14 06:34:15;;;;;;;;;;;21.60;88.60;;;;;;5046115;28;19940;-65
2021/07/14 06:36:40;;;;;;;;;;;21.50;88.70;;;;;;5026430;28;19920;-65
2021/07/14 06:39:07;;;;;;;;;;;21.50;89.00;;;;;;5050379;28;20806;-65
2021/07/14 06:41:32;;;;;;;;;;;21.50;89.30;;;;;;5042716;28;19928;-65
2021/07/14 06:43:59;;;;;;;;;;;21.50;89.30;;;;;;5050623;28;19921;-64
2021/07/14 06:46:25;;;;;;;;;;;21.50;89.40;;;;;;5051183;28;19921;-65
2021/07/14 06:48:53;;;;;;;;;;;21.50;89.50;;;;;;5050743;28;19920;-65
2021/07/14 06:51:19;;;;;;;;;;;21.50;89.70;;;;;;5032649;28;20476;-65
2021/07/14 06:53:44;;;;;;;;;;;21.50;89.90;;;;;;5050991;28;19928;-65
2021/07/14 06:56:10;;;;;;;;;;;21.50;90.00;;;;;;5032504;28;19921;-66
2021/07/14 06:58:36;;;;;;;;;;;21.60;90.00;;;;;;5050604;28;19932;-66
2021/07/14 07:01:03;;;;;;;;;;;21.70;90.00;;;;;;5051006;28;20007;-66
2021/07/14 07:03:29;;;;;;;;;;;21.70;90.10;;;;;;5050603;28;19950;-66
2021/07/14 07:05:54;;;;;;;;;;;21.80;90.00;;;;;;5050799;28;19970;-65
2021/07/14 07:08:20;;;;;;;;;;;21.90;90.10;;;;;;5048980;28;19920;-64
2021/07/14 07:10:47;;;;;;;;;;;21.90;90.10;;;;;;5049541;28;20004;-65
2021/07/14 07:13:16;;;;;;;;;;;21.90;90.00;;;;;;5049999;28;19921;-65
2021/07/14 07:15:43;;;;;;;;;;;22.00;90.00;;;;;;5031716;28;19921;-65
2021/07/14 07:18:09;;;;;;;;;;;22.00;89.80;;;;;;5049500;28;19917;-65
2021/07/14 07:20:34;;;;;;;;;;;22.00;90.10;;;;;;5053467;28;19923;-64
2021/07/14 07:23:00;;;;;;;;;;;22.10;90.30;;;;;;5053892;28;19966;-65
2021/07/14 07:25:26;;;;;;;;;;;22.30;90.40;;;;;;5036381;28;20517;-65
2021/07/14 07:27:52;;;;;;;;;;;22.60;90.50;;;;;;5053816;28;20377;-65
2021/07/14 07:30:18;;;;;;;;;;;22.80;90.50;;;;;;5053610;28;20955;-64
2021/07/14 07:32:44;;;;;;;;;;;23.00;90.10;;;;;;5036318;28;20037;-65
2021/07/14 07:35:10;;;;;;;;;;;23.10;89.80;;;;;;5053756;28;20007;-65
2021/07/14 07:37:35;;;;;;;;;;;23.10;88.90;;;;;;5053723;28;19995;-65
2021/07/14 07:40:01;;;;;;;;;;;23.10;89.10;;;;;;5035953;28;19960;-65
2021/07/14 07:42:27;;;;;;;;;;;23.10;88.80;;;;;;5035811;28;20359;-64
2021/07/14 07:44:53;;;;;;;;;;;23.20;88.80;;;;;;5053873;28;19920;-66
2021/07/14 07:47:19;;;;;;;;;;;23.10;88.40;;;;;;5035313;28;19916;-66
2021/07/14 07:49:45;;;;;;;;;;;23.10;88.20;;;;;;5053963;28;20090;-65
2021/07/14 07:52:15;;;;;;;;;;;23.20;88.80;;;;;;5053797;28;19921;-65
2021/07/14 07:54:40;;;;;;;;;;;23.50;89.90;;;;;;5053430;28;19949;-66
2021/07/14 07:57:06;;;;;;;;;;;23.90;90.20;;;;;;5053381;28;19955;-65
2021/07/14 07:59:34;;;;;;;;;;;24.50;90.30;;;;;;5053799;28;20353;-65
2021/07/14 08:02:00;;;;;;;;;;;24.80;89.00;;;;;;5053155;28;20415;-65
2021/07/14 08:04:26;;;;;;;;;;;25.00;87.40;;;;;;5053763;28;19959;-65
2021/07/14 08:06:51;;;;;;;;;;;25.00;86.40;;;;;;5052642;28;19917;-65
2021/07/14 08:09:17;;;;;;;;;;;25.10;86.60;;;;;;5053515;28;19960;-64
2021/07/14 08:11:42;;;;;;;;;;;25.20;86.10;;;;;;5053431;28;19943;-65
2021/07/14 08:14:09;;;;;;;;;;;25.30;85.10;;;;;;5052877;28;19920;-66
2021/07/14 08:16:35;;;;;;;;;;;25.40;84.40;;;;;;5053146;28;19955;-65
2021/07/14 08:19:01;;;;;;;;;;;25.40;84.00;;;;;;5035367;28;19952;-65
2021/07/14 08:21:26;;;;;;;;;;;25.40;83.50;;;;;;5052726;28;19917;-65
2021/07/14 08:23:52;;;;;;;;;;;25.40;83.20;;;;;;5035371;28;19999;-65
2021/07/14 08:26:18;;;;;;;;;;;25.30;82.60;;;;;;5052611;28;19925;-65
2021/07/14 08:28:44;;;;;;;;;;;25.30;82.30;;;;;;5052882;28;19952;-66
2021/07/14 08:31:10;;;;;;;;;;;25.30;82.80;;;;;;5035965;28;19917;-66
2021/07/14 08:33:35;;;;;;;;;;;25.40;83.30;;;;;;5053821;28;19924;-64
2021/07/14 08:36:01;;;;;;;;;;;25.60;83.40;;;;;;5035165;28;20304;-65
2021/07/14 08:38:28;;;;;;;;;;;25.90;83.20;;;;;;5052210;28;20404;-66
2021/07/14 08:40:54;;;;;;;;;;;26.40;84.30;;;;;;5052876;28;19916;-66
2021/07/14 08:43:20;;;;;;;;;;;27.90;87.90;;;;;;5052966;28;20347;-66
2021/07/14 08:45:47;;;;;;;;;;;29.30;84.70;;;;;;5052468;28;19921;-65
2021/07/14 08:48:13;;;;;;;;;;;30.60;81.90;;;;;;5052465;28;19955;-65
2021/07/14 08:50:43;;;;;;;;;;;31.20;78.00;;;;;;5052687;28;20402;-65
2021/07/14 08:53:14;;;;;;;;;;;31.50;75.30;;;;;;5052120;28;19921;-66
2021/07/14 08:55:41;;;;;;;;;;;31.70;72.70;;;;;;5052673;28;19921;-65
2021/07/14 08:58:07;;;;;;;;;;;32.00;71.90;;;;;;5051704;28;19924;-65
2021/07/14 09:00:32;;;;;;;;;;;32.20;71.20;;;;;;5052699;28;19917;-65
2021/07/14 09:02:58;;;;;;;;;;;32.20;68.10;;;;;;5052374;28;19920;-65
2021/07/14 09:05:23;;;;;;;;;;;31.80;66.40;;;;;;5051942;28;19928;-65
2021/07/14 09:07:49;;;;;;;;;;;31.30;65.60;;;;;;5052108;28;20403;-65
2021/07/14 09:10:15;;;;;;;;;;;31.00;66.40;;;;;;5052480;28;19925;-65
2021/07/14 09:12:41;;;;;;;;;;;30.60;65.40;;;;;;5051830;28;20388;-65
2021/07/14 09:15:27;;;;;;;;;;;30.10;65.10;;;;;;5051063;28;19917;-65
2021/07/14 09:17:57;;;;;;;;;;;29.60;65.30;;;;;;5051716;28;19917;-66
2021/07/14 09:20:24;;;;;;;;;;;29.30;66.40;;;;;;5052255;28;19924;-66
2021/07/14 09:23:01;;;;;;;;;;;29.30;67.60;;;;;;5051908;28;20012;-66
2021/07/14 09:25:28;;;;;;;;;;;29.50;68.10;;;;;;5052111;28;19920;-65
2021/07/14 09:27:53;;;;;;;;;;;29.80;68.10;;;;;;5051528;28;19993;-66
2021/07/14 09:30:20;;;;;;;;;;;30.40;69.10;;;;;;5051978;28;19959;-66
2021/07/14 09:32:51;;;;;;;;;;;31.20;68.80;;;;;;5052189;28;19952;-65
2021/07/14 09:35:23;;;;;;;;;;;31.90;67.30;;;;;;5051717;28;20395;-66
2021/07/14 09:37:49;;;;;;;;;;;32.10;64.80;;;;;;5051418;28;19917;-65
2021/07/14 09:40:15;;;;;;;;;;;32.40;64.20;;;;;;5051435;28;19921;-66
2021/07/14 09:42:56;;;;;;;;;;;32.30;62.40;;;;;;5051211;28;19924;-65
2021/07/14 09:45:40;;;;;;;;;;;32.60;63.40;;;;;;5051489;28;20015;-65
2021/07/14 09:48:06;;;;;;;;;;;33.00;62.80;;;;;;5051113;28;19999;-65
2021/07/14 09:50:33;;;;;;;;;;;34.50;63.70;;;;;;5033395;28;20262;-66
2021/07/14 09:52:59;;;;;;;;;;;36.80;63.00;;;;;;5051687;28;19917;-65
2021/07/14 09:55:31;;;;;;;;;;;38.00;59.30;;;;;;5051056;28;19924;-67
2021/07/14 09:58:13;;;;;;;;;;;38.80;56.10;;;;;;5051428;28;20369;-66
2021/07/14 10:00:39;;;;;;;;;;;40.40;54.80;;;;;;5051160;28;19967;-67
2021/07/14 10:03:05;;;;;;;;;;;42.60;52.20;;;;;;5034165;28;19913;-66
2021/07/14 10:05:31;;;;;;;;;;;43.70;47.80;;;;;;5052031;28;19928;-66
2021/07/14 10:08:17;;;;;;;;;;;43.60;44.60;;;;;;5051391;28;19924;-67
2021/07/14 10:10:43;;;;;;;;;;;43.40;42.60;;;;;;5051903;28;20304;-69
2021/07/14 10:13:09;;;;;;;;;;;41.60;41.10;;;;;;5051657;28;19925;-66
2021/07/14 10:15:35;;;;;;;;;;;39.80;41.20;;;;;;5050395;28;20369;-65
2021/07/14 10:18:01;;;;;;;;;;;38.20;42.50;;;;;;5050891;28;19912;-66
2021/07/14 10:20:32;;;;;;;;;;;37.00;44.10;;;;;;5051334;28;19928;-66
2021/07/14 10:23:01;;;;;;;;;;;37.00;46.70;;;;;;5033718;28;20289;-66
2021/07/14 10:25:27;;;;;;;;;;;38.40;47.40;;;;;;5050996;28;19925;-67
2021/07/14 10:27:54;;;;;;;;;;;40.50;45.80;;;;;;5050966;28;19948;-68
2021/07/14 10:30:20;;;;;;;;;;;42.60;44.50;;;;;;5050868;28;19988;-66
2021/07/14 10:32:46;;;;;;;;;;;44.70;42.10;;;;;;5050993;28;19917;-66
2021/07/14 10:35:14;;;;;;;;;;;46.00;38.90;;;;;;5033365;28;20004;-67
2021/07/14 10:38:00;;;;;;;;;;;46.80;37.00;;;;;;5050431;28;20958;-66
2021/07/14 10:40:26;;;;;;;;;;;46.10;34.10;;;;;;5050540;28;19940;-67
2021/07/14 10:42:52;;;;;;;;;;;44.80;35.70;;;;;;5051247;28;20393;-67
2021/07/14 10:45:19;;;;;;;;;;;45.40;36.10;;;;;;5051229;28;19979;-67
2021/07/14 10:47:45;;;;;;;;;;;46.70;35.20;;;;;;5050449;28;20381;-67
2021/07/14 10:50:11;;;;;;;;;;;46.40;32.70;;;;;;5051282;28;19917;-67
2021/07/14 10:52:38;;;;;;;;;;;44.40;32.40;;;;;;5051102;28;19928;-66
2021/07/14 10:55:03;;;;;;;;;;;42.80;33.50;;;;;;5053094;28;20362;-65
2021/07/14 10:57:30;;;;;;;;;;;41.90;35.50;;;;;;5054882;28;19947;-66
2021/07/14 10:59:57;;;;;;;;;;;42.40;37.00;;;;;;5054705;28;19921;-66
2021/07/14 11:02:49;;;;;;;;;;;44.30;37.20;;;;;;5054819;28;19952;-66
2021/07/14 11:05:16;;;;;;;;;;;46.00;35.40;;;;;;5052642;28;19917;-68
2021/07/14 11:07:41;;;;;;;;;;;47.40;33.20;;;;;;5054674;28;19927;-68
2021/07/14 11:10:25;;;;;;;;;;;48.20;32.10;;;;;;5054198;28;19920;-69
2021/07/14 11:12:51;;;;;;;;;;;48.10;31.00;;;;;;5036711;28;19921;-69
2021/07/14 11:15:34;;;;;;;;;;;47.60;30.90;;;;;;5054796;28;19924;-69
2021/07/14 11:18:01;;;;;;;;;;;45.60;30.00;;;;;;5054344;28;20301;-68
2021/07/14 11:20:38;;;;;;;;;;;42.60;31.10;;;;;;5054212;28;19917;-70
2021/07/14 11:23:20;;;;;;;;;;;41.20;34.30;;;;;;5054592;28;20388;-68
2021/07/14 11:25:50;;;;;;;;;;;40.30;35.20;;;;;;5054035;28;20512;-69
2021/07/14 11:28:17;;;;;;;;;;;39.30;36.10;;;;;;5054005;28;19968;-69
2021/07/14 11:30:52;;;;;;;;;;;40.40;38.40;;;;;;5054114;28;19912;-69
2021/07/14 11:33:18;;;;;;;;;;;42.20;37.40;;;;;;5054345;28;20008;-70
2021/07/14 11:35:52;;;;;;;;;;;43.10;35.70;;;;;;5054264;28;20000;-69
2021/07/14 11:38:19;;;;;;;;;;;42.90;35.00;;;;;;5053441;28;20336;-68
2021/07/14 11:40:46;;;;;;;;;;;41.70;34.90;;;;;;5054325;28;20007;-68
2021/07/14 11:43:11;;;;;;;;;;;40.10;35.20;;;;;;5053655;28;19924;-68
2021/07/14 11:45:38;;;;;;;;;;;38.50;36.50;;;;;;5054186;28;19917;-69
2021/07/14 11:48:11;;;;;;;;;;;37.70;38.70;;;;;;5053792;28;19956;-69
2021/07/14 11:50:46;;;;;;;;;;;37.50;40.30;;;;;;5035776;28;20292;-69
2021/07/14 11:55:59;;;;;;;;;;;36.90;40.30;;;;;;5053506;28;20338;-69
2021/07/14 11:58:46;;;;;;;;;;;36.30;41.20;;;;;;5053361;28;19912;-68
2021/07/14 12:01:18;;;;;;;;;;;36.00;42.50;;;;;;5053509;28;20001;-70
2021/07/14 12:04:02;;;;;;;;;;;36.00;42.60;;;;;;5053689;28;19923;-69
2021/07/14 12:06:33;;;;;;;;;;;35.90;43.00;;;;;;5051451;28;19983;-68
2021/07/14 12:09:14;;;;;;;;;;;35.90;43.50;;;;;;5045022;28;19991;-70
2021/07/14 12:11:40;;;;;;;;;;;35.80;43.30;;;;;;5052333;28;20002;-71
2021/07/14 12:14:05;;;;;;;;;;;35.40;43.40;;;;;;5044988;28;19913;-68
2021/07/14 12:16:31;;;;;;;;;;;35.10;44.30;;;;;;5052791;28;19917;-69
2021/07/14 12:18:58;;;;;;;;;;;35.00;44.50;;;;;;5050279;28;19956;-70
2021/07/14 12:21:49;;;;;;;;;;;34.70;44.60;;;;;;5052925;28;20292;-70
2021/07/14 12:24:27;;;;;;;;;;;34.60;45.60;;;;;;5045576;28;19975;-69
2021/07/14 12:27:16;;;;;;;;;;;34.70;45.60;;;;;;5044397;28;19921;-69
2021/07/14 12:29:45;;;;;;;;;;;34.50;45.40;;;;;;5047030;28;19928;-69
2021/07/14 12:32:11;;;;;;;;;;;34.00;45.80;;;;;;5053214;28;20016;-70
2021/07/14 12:34:37;;;;;;;;;;;33.70;45.90;;;;;;5052607;28;20008;-71
2021/07/14 12:37:03;;;;;;;;;;;33.40;46.30;;;;;;5052202;28;19999;-69
2021/07/14 12:39:31;;;;;;;;;;;33.00;46.70;;;;;;5052848;28;19928;-68
2021/07/14 12:41:57;;;;;;;;;;;32.80;47.10;;;;;;5052290;28;19917;-69
2021/07/14 12:44:23;;;;;;;;;;;32.50;47.30;;;;;;5052808;28;19924;-70
2021/07/14 12:46:49;;;;;;;;;;;32.20;48.00;;;;;;5051738;28;19917;-69
2021/07/14 12:49:18;;;;;;;;;;;32.30;48.60;;;;;;5035099;28;20426;-68
2021/07/14 12:52:02;;;;;;;;;;;32.50;48.60;;;;;;5052614;28;19924;-70
2021/07/14 12:54:28;;;;;;;;;;;32.60;48.30;;;;;;5034385;28;20381;-68
2021/07/14 12:56:54;;;;;;;;;;;32.50;48.50;;;;;;5052001;28;20005;-68
2021/07/14 12:59:19;;;;;;;;;;;32.20;48.40;;;;;;5048656;28;20346;-69
2021/07/14 13:01:45;;;;;;;;;;;31.80;48.70;;;;;;5044093;28;20021;-69
2021/07/14 13:04:14;;;;;;;;;;;31.40;49.50;;;;;;5052569;28;20602;-69
2021/07/14 13:06:40;;;;;;;;;;;31.10;50.20;;;;;;5050527;28;20008;-70
2021/07/14 13:09:07;;;;;;;;;;;30.90;50.70;;;;;;5046060;28;19999;-70
2021/07/14 13:11:32;;;;;;;;;;;30.80;51.10;;;;;;5049952;28;19929;-68
2021/07/14 13:13:58;;;;;;;;;;;30.60;51.40;;;;;;5026419;28;20278;-68
2021/07/14 13:16:24;;;;;;;;;;;30.40;51.80;;;;;;5033894;28;20000;-68
2021/07/14 13:18:52;;;;;;;;;;;30.20;52.30;;;;;;5032198;28;20003;-69
2021/07/14 13:21:22;;;;;;;;;;;29.90;52.70;;;;;;5031936;28;19917;-67
2021/07/14 13:23:47;;;;;;;;;;;29.70;53.30;;;;;;5013572;28;19967;-68
2021/07/14 13:26:20;;;;;;;;;;;29.50;53.90;;;;;;5032103;28;19957;-67
2021/07/14 13:28:47;;;;;;;;;;;29.30;54.40;;;;;;4997255;28;19921;-68
2021/07/14 13:31:20;;;;;;;;;;;29.20;54.90;;;;;;5013879;28;19987;-69
2021/07/14 13:33:46;;;;;;;;;;;29.10;55.30;;;;;;5031759;28;19922;-67
2021/07/14 13:36:13;;;;;;;;;;;29.10;56.10;;;;;;5031427;28;19924;-67
2021/07/14 13:38:39;;;;;;;;;;;29.30;56.40;;;;;;5031069;28;19917;-68
2021/07/14 13:41:16;;;;;;;;;;;29.60;56.40;;;;;;5031938;28;19920;-67
2021/07/14 13:43:42;;;;;;;;;;;29.80;56.20;;;;;;5031551;28;20008;-68
2021/07/14 13:46:09;;;;;;;;;;;29.80;55.80;;;;;;5031897;28;19944;-66
2021/07/14 13:48:36;;;;;;;;;;;29.60;56.10;;;;;;5030739;28;19917;-66
2021/07/14 13:51:05;;;;;;;;;;;29.50;56.30;;;;;;5032080;28;20397;-67
2021/07/14 13:53:30;;;;;;;;;;;29.40;56.60;;;;;;5031712;28;19928;-68
2021/07/14 13:56:05;;;;;;;;;;;29.40;57.10;;;;;;5031872;28;19917;-67
2021/07/14 13:58:31;;;;;;;;;;;29.30;57.30;;;;;;5031248;28;19924;-67
2021/07/14 14:00:57;;;;;;;;;;;29.10;57.50;;;;;;5031294;28;19913;-67
2021/07/14 14:03:23;;;;;;;;;;;28.80;58.10;;;;;;5031514;28;19921;-67
2021/07/14 14:06:01;;;;;;;;;;;28.70;58.90;;;;;;5050362;28;19921;-67
2021/07/14 14:08:27;;;;;;;;;;;28.60;59.70;;;;;;5024997;28;19957;-67
2021/07/14 14:10:54;;;;;;;;;;;28.60;60.20;;;;;;5050903;28;19952;-67
2021/07/14 14:13:30;;;;;;;;;;;28.70;60.70;;;;;;5050485;28;19927;-67
2021/07/14 14:15:55;;;;;;;;;;;28.80;61.20;;;;;;5046988;28;19924;-67
2021/07/14 14:18:21;;;;;;;;;;;29.10;61.30;;;;;;5047833;28;19921;-68
2021/07/14 14:20:47;;;;;;;;;;;29.40;61.30;;;;;;5048613;28;19948;-67
2021/07/14 14:23:12;;;;;;;;;;;29.70;60.80;;;;;;5042794;28;19913;-67
2021/07/14 14:25:40;;;;;;;;;;;30.00;60.30;;;;;;5050418;28;19991;-67
2021/07/14 14:28:16;;;;;;;;;;;30.30;59.80;;;;;;5051725;28;19917;-67
2021/07/14 14:30:43;;;;;;;;;;;30.50;59.60;;;;;;5054643;28;19917;-67
2021/07/14 14:33:09;;;;;;;;;;;30.70;58.80;;;;;;5055026;28;20415;-68